Time;durP1;ratioP1;P1;durP2;ratioP2;P2;SDS_P1;SDS_P2;PMS_P1;PMS_P2;Temp;Humidity;BMP_temperature;BMP_pressure;BME280_temperature;BME280_humidity;BME280_pressure;Samples;Min_cycle;Max_cycle;Signal;HPM_P1;HPM_P2
2022/08/02 00:03:52;;;;;;;2.00;0.70;;;;;;;18.12;100.00;98584.63;15291619;19;20468;-78
2022/08/02 00:09:00;;;;;;;1.85;0.75;;;;;;;18.06;100.00;98585.47;15289566;19;20007;-78
2022/08/02 00:14:05;;;;;;;1.65;0.70;;;;;;;17.99;100.00;98586.28;15287433;19;20017;-78
2022/08/02 00:19:10;;;;;;;0.82;0.63;;;;;;;17.95;100.00;98574.09;15284570;19;20010;-77
2022/08/02 00:24:17;;;;;;;1.23;0.80;;;;;;;17.91;100.00;98577.44;15283123;19;20043;-78
2022/08/02 00:29:34;;;;;;;2.95;0.70;;;;;;;17.90;100.00;98573.03;15286320;19;20031;-77
2022/08/02 00:34:46;;;;;;;1.00;0.80;;;;;;;17.87;100.00;98575.13;15286737;19;20434;-79
2022/08/02 00:39:53;;;;;;;1.25;0.75;;;;;;;17.81;100.00;98592.28;15287496;19;20003;-77
2022/08/02 00:44:58;;;;;;;3.03;0.80;;;;;;;17.63;100.00;98592.00;15292266;19;20027;-77
2022/08/02 00:50:03;;;;;;;2.03;0.70;;;;;;;17.62;100.00;98580.28;15284010;19;20032;-77
2022/08/02 00:55:11;;;;;;;0.77;0.70;;;;;;;17.64;100.00;98582.78;15280011;19;20018;-76
2022/08/02 01:00:21;;;;;;;0.68;0.57;;;;;;;17.64;100.00;98580.06;15285859;19;20086;-76
2022/08/02 01:05:26;;;;;;;1.17;0.85;;;;;;;17.59;100.00;98577.94;15292619;19;20027;-77
2022/08/02 01:10:33;;;;;;;1.67;0.77;;;;;;;17.55;100.00;98576.66;15286067;19;20092;-78
2022/08/02 01:15:54;;;;;;;1.40;0.80;;;;;;;17.51;100.00;98589.03;15291147;19;20475;-79
2022/08/02 01:21:25;;;;;;;2.97;0.80;;;;;;;17.44;100.00;98586.25;15286957;19;20085;-77
2022/08/02 01:26:43;;;;;;;1.17;0.67;;;;;;;17.37;100.00;98579.94;15294638;19;20511;-77
2022/08/02 01:31:59;;;;;;;1.45;0.80;;;;;;;17.30;100.00;98581.78;15309364;19;20283;-77
2022/08/02 01:37:12;;;;;;;3.42;0.80;;;;;;;17.23;100.00;98593.47;15307431;19;20010;-78
2022/08/02 01:42:19;;;;;;;1.92;0.80;;;;;;;17.17;100.00;98594.28;15307186;19;20026;-78
2022/08/02 01:47:31;;;;;;;1.80;0.70;;;;;;;17.08;100.00;98585.41;15304577;19;20025;-78
2022/08/02 01:52:41;;;;;;;4.10;1.02;;;;;;;17.04;100.00;98586.03;15302407;19;20015;-78
2022/08/02 01:58:00;;;;;;;1.50;0.90;;;;;;;17.00;100.00;98584.72;15289141;19;20050;-76
2022/08/02 02:03:17;;;;;;;2.97;0.95;;;;;;;16.96;100.00;98597.06;15300710;19;20035;-76
2022/08/02 02:08:28;;;;;;;1.73;0.80;;;;;;;16.88;100.00;98585.25;15301281;19;20010;-76
2022/08/02 02:13:33;;;;;;;1.97;0.80;;;;;;;16.82;100.00;98598.81;15298292;19;20015;-76
2022/08/02 02:18:44;;;;;;;2.40;0.90;;;;;;;16.76;100.00;98595.84;15291364;19;20567;-75
2022/08/02 02:23:50;;;;;;;3.08;1.10;;;;;;;16.69;100.00;98599.53;15298826;19;20014;-77
2022/08/02 02:28:57;;;;;;;2.50;1.00;;;;;;;16.61;100.00;98603.25;15297420;19;20011;-77
2022/08/02 02:34:15;;;;;;;2.53;1.08;;;;;;;16.51;100.00;98595.44;15322426;19;20011;-76
2022/08/02 02:39:25;;;;;;;2.65;1.00;;;;;;;16.43;100.00;98595.53;15312217;19;20018;-77
2022/08/02 02:44:34;;;;;;;2.92;1.05;;;;;;;16.36;100.00;98603.63;15305532;19;20038;-76
2022/08/02 02:49:44;;;;;;;2.55;0.93;;;;;;;16.29;100.00;98603.56;15301955;19;20014;-77
2022/08/02 02:54:52;;;;;;;6.50;1.65;;;;;;;16.21;100.00;98595.56;15351517;19;20003;-77
2022/08/02 02:59:57;;;;;;;2.17;1.00;;;;;;;16.17;100.00;98605.97;15327805;19;20014;-76
2022/08/02 03:05:06;;;;;;;1.83;1.00;;;;;;;16.14;100.00;98602.81;15295371;19;20106;-76
2022/08/02 03:10:13;;;;;;;1.90;1.00;;;;;;;16.08;100.00;98600.84;15293795;19;20010;-77
2022/08/02 03:15:19;;;;;;;2.30;1.00;;;;;;;16.04;100.00;98605.00;15299624;19;20039;-78
2022/08/02 03:20:27;;;;;;;1.15;0.90;;;;;;;16.00;100.00;98616.25;15295528;19;20026;-76
2022/08/02 03:25:33;;;;;;;3.15;1.15;;;;;;;15.91;100.00;98609.25;15302061;19;20010;-76
2022/08/02 03:30:38;;;;;;;1.85;1.10;;;;;;;15.86;100.00;98622.56;15296853;19;20011;-77
2022/08/02 03:35:49;;;;;;;2.65;1.00;;;;;;;15.85;100.00;98623.59;15294352;19;20507;-75
2022/08/02 03:40:56;;;;;;;2.35;1.27;;;;;;;15.86;100.00;98630.69;15353113;19;20014;-74
2022/08/02 03:46:02;;;;;;;2.25;1.20;;;;;;;15.86;100.00;98619.84;15316784;19;20014;-76
2022/08/02 03:51:11;;;;;;;3.05;1.10;;;;;;;15.83;100.00;98631.91;15291430;19;20018;-77
2022/08/02 03:56:17;;;;;;;4.07;1.30;;;;;;;15.83;100.00;98634.63;15297326;19;20023;-77
2022/08/02 04:01:22;;;;;;;2.75;1.30;;;;;;;15.82;100.00;98640.22;15299205;19;20007;-77
2022/08/02 04:06:30;;;;;;;3.20;1.20;;;;;;;15.82;100.00;98645.66;15297125;19;20014;-78
2022/08/02 04:11:36;;;;;;;1.67;1.13;;;;;;;15.79;100.00;98641.44;15297574;19;20002;-76
2022/08/02 04:16:44;;;;;;;1.70;1.10;;;;;;;15.75;100.00;98645.59;15307330;19;20031;-76
2022/08/02 04:21:54;;;;;;;2.42;1.20;;;;;;;15.75;100.00;98650.19;15303281;19;20258;-78
2022/08/02 04:27:02;;;;;;;3.17;1.30;;;;;;;15.73;100.00;98658.53;15300761;19;20420;-77
2022/08/02 04:32:12;;;;;;;2.73;1.20;;;;;;;15.74;100.00;98651.19;15298020;19;20014;-77
2022/08/02 04:37:20;;;;;;;2.95;1.20;;;;;;;15.72;100.00;98656.84;15298021;19;20022;-77
2022/08/02 04:42:27;;;;;;;4.93;1.40;;;;;;;15.72;100.00;98659.56;15301833;19;20014;-76
2022/08/02 04:47:33;;;;;;;3.72;1.50;;;;;;;15.75;100.00;98661.03;15293245;19;20479;-76
2022/08/02 04:53:01;;;;;;;3.05;1.50;;;;;;;15.76;100.00;98665.44;15286965;19;20014;-76
2022/08/02 04:58:06;;;;;;;2.83;1.40;;;;;;;15.74;100.00;98670.22;15288114;19;20014;-76
2022/08/02 05:03:31;;;;;;;3.33;1.40;;;;;;;15.81;100.00;98679.31;15304232;19;20009;-76
2022/08/02 05:08:39;;;;;;;4.60;1.40;;;;;;;15.88;100.00;98685.69;15302264;19;20041;-75
2022/08/02 05:13:44;;;;;;;3.25;1.73;;;;;;;15.94;100.00;98684.94;15299741;19;20015;-78
2022/08/02 05:19:03;;;;;;;4.25;1.55;;;;;;;16.04;100.00;98670.22;15306961;19;20014;-76
2022/08/02 05:24:11;;;;;;;3.83;1.52;;;;;;;16.15;100.00;98676.00;15307565;19;20021;-76
2022/08/02 05:29:16;;;;;;;4.45;1.50;;;;;;;16.26;100.00;98680.09;15302793;19;20010;-76
2022/08/02 05:34:20;;;;;;;5.63;1.50;;;;;;;16.38;100.00;98675.00;15326704;19;20026;-78
2022/08/02 05:39:28;;;;;;;4.00;1.52;;;;;;;16.52;100.00;98684.16;15308916;19;20015;-77
2022/08/02 05:44:36;;;;;;;5.18;1.33;;;;;;;16.67;100.00;98681.38;15294424;19;20014;-77
2022/08/02 05:49:41;;;;;;;4.03;1.20;;;;;;;16.85;100.00;98683.63;15300992;19;20490;-76
2022/08/02 05:54:59;;;;;;;5.57;1.40;;;;;;;17.06;100.00;98684.66;15301883;19;20070;-77
2022/08/02 06:00:09;;;;;;;6.05;1.40;;;;;;;17.27;100.00;98682.94;15297732;19;20034;-78
2022/08/02 06:05:20;;;;;;;3.88;1.40;;;;;;;17.49;100.00;98691.88;15306490;19;20062;-77
2022/08/02 06:10:30;;;;;;;3.45;1.25;;;;;;;17.70;100.00;98685.50;15296884;19;20009;-76
2022/08/02 06:15:37;;;;;;;4.82;1.40;;;;;;;17.86;100.00;98695.25;15299023;19;20020;-76
2022/08/02 06:20:59;;;;;;;4.88;1.50;;;;;;;17.96;100.00;98689.41;15296568;19;20082;-76
2022/08/02 06:26:29;;;;;;;4.60;1.20;;;;;;;18.05;100.00;98690.13;15305192;19;20039;-78
2022/08/02 06:31:34;;;;;;;3.55;1.30;;;;;;;18.05;100.00;98677.31;15306278;19;20014;-76
2022/08/02 06:36:43;;;;;;;4.13;1.30;;;;;;;18.11;100.00;98671.06;15303757;19;20058;-77
2022/08/02 06:42:09;;;;;;;2.60;1.00;;;;;;;18.18;100.00;98666.44;15309485;19;20043;-77
2022/08/02 06:47:21;;;;;;;3.07;1.20;;;;;;;18.26;100.00;98667.34;15359423;19;20025;-76
2022/08/02 06:52:27;;;;;;;4.60;1.20;;;;;;;18.31;100.00;98671.13;15297635;19;20018;-77
2022/08/02 06:57:37;;;;;;;3.38;1.10;;;;;;;18.37;100.00;98661.28;15295108;19;20029;-79
2022/08/02 07:02:42;;;;;;;2.78;1.02;;;;;;;18.47;100.00;98664.44;15299967;19;20233;-78
2022/08/02 07:07:47;;;;;;;2.63;1.02;;;;;;;18.56;100.00;98661.50;15300002;19;20022;-79
2022/08/02 07:12:55;;;;;;;4.38;1.23;;;;;;;18.68;100.00;98668.03;15301109;19;20062;-80
2022/08/02 07:18:03;;;;;;;4.32;1.35;;;;;;;18.79;100.00;98664.69;15301307;19;20014;-79
2022/08/02 07:23:08;;;;;;;4.40;1.10;;;;;;;18.92;100.00;98661.16;15295243;19;20046;-78
2022/08/02 07:28:16;;;;;;;2.80;1.05;;;;;;;19.07;100.00;98652.78;15304117;19;20566;-77
2022/08/02 07:33:28;;;;;;;3.42;1.00;;;;;;;19.25;100.00;98656.72;15299748;19;20034;-77
2022/08/02 07:38:43;;;;;;;2.38;1.00;;;;;;;19.40;100.00;98640.13;15300384;19;20003;-77
2022/08/02 07:43:52;;;;;;;5.28;1.13;;;;;;;19.56;100.00;98633.34;15304317;19;20010;-76
2022/08/02 07:48:57;;;;;;;3.50;1.10;;;;;;;19.70;100.00;98640.44;15301553;19;20018;-76
2022/08/02 07:54:02;;;;;;;2.13;0.90;;;;;;;19.86;100.00;98635.59;15293433;19;20018;-77
2022/08/02 07:59:12;;;;;;;2.58;0.98;;;;;;;20.04;100.00;98634.88;15298480;19;20018;-77
2022/08/02 08:04:17;;;;;;;1.75;0.90;;;;;;;20.23;100.00;98632.25;15304884;19;20034;-79
2022/08/02 08:09:22;;;;;;;3.55;0.80;;;;;;;20.39;100.00;98626.25;15302212;19;20352;-77
2022/08/02 08:14:30;;;;;;;1.85;0.88;;;;;;;20.54;100.00;98627.88;15302491;19;20054;-77
2022/08/02 08:19:37;;;;;;;3.25;1.10;;;;;;;20.68;100.00;98626.72;15298273;19;20011;-79
2022/08/02 08:24:55;;;;;;;2.42;0.90;;;;;;;20.83;100.00;98629.16;15283043;19;20018;-76
2022/08/02 08:30:03;;;;;;;3.92;0.93;;;;;;;21.00;100.00;98617.63;15293351;19;20490;-77
2022/08/02 08:35:09;;;;;;;2.33;1.10;;;;;;;21.21;100.00;98611.75;15294617;19;20495;-77
2022/08/02 08:40:15;;;;;;;2.50;0.88;;;;;;;21.31;100.00;98622.16;15289551;19;20074;-77
2022/08/02 08:45:26;;;;;;;2.20;0.90;;;;;;;21.43;100.00;98616.78;15294564;19;20008;-77
2022/08/02 08:50:35;;;;;;;2.95;1.00;;;;;;;21.58;100.00;98615.59;15293673;19;20010;-78
2022/08/02 08:55:41;;;;;;;2.70;1.05;;;;;;;21.67;100.00;98617.81;15293966;19;20118;-78
2022/08/02 09:00:49;;;;;;;3.55;1.13;;;;;;;21.77;100.00;98606.31;15287588;19;20038;-78
2022/08/02 09:05:59;;;;;;;2.17;0.82;;;;;;;21.95;100.00;98605.44;15298920;19;20454;-76
2022/08/02 09:11:14;;;;;;;2.10;1.00;;;;;;;22.07;100.00;98590.94;15291019;19;20482;-77
2022/08/02 09:16:29;;;;;;;1.90;0.90;;;;;;;22.18;100.00;98590.16;15299692;19;20026;-77
2022/08/02 09:21:39;;;;;;;2.47;0.82;;;;;;;22.39;100.00;98572.31;15288556;19;20021;-77
2022/08/02 09:26:45;;;;;;;2.40;1.10;;;;;;;22.58;100.00;98577.75;15292775;19;20404;-76
2022/08/02 09:31:53;;;;;;;1.58;0.70;;;;;;;22.71;100.00;98583.03;15304342;19;20018;-76
2022/08/02 09:36:58;;;;;;;1.88;0.80;;;;;;;22.82;100.00;98580.53;15293049;19;20022;-77
2022/08/02 09:42:10;;;;;;;1.95;0.77;;;;;;;22.87;100.00;98583.41;15290970;19;20026;-76
2022/08/02 09:47:18;;;;;;;;;;;;;;;23.03;100.00;98577.19;15302376;19;20081;-77
2022/08/02 09:52:30;;;;;;;1.98;0.93;;;;;;;23.15;100.00;98576.34;15302138;19;19930;-78
2022/08/02 09:57:47;;;;;;;2.88;1.00;;;;;;;23.38;100.00;98578.28;15303946;19;20365;-77
2022/08/02 10:03:11;;;;;;;2.70;1.10;;;;;;;23.39;100.00;98572.53;15295366;19;20930;-77
2022/08/02 10:08:27;;;;;;;4.10;1.00;;;;;;;23.70;100.00;98575.09;15302967;19;20007;-78
2022/08/02 10:13:34;;;;;;;2.33;1.00;;;;;;;23.85;100.00;98577.31;15310469;19;20364;-78
2022/08/02 10:18:41;;;;;;;3.65;0.90;;;;;;;24.05;100.00;98576.09;15302092;19;20007;-76
2022/08/02 10:23:47;;;;;;;2.03;0.90;;;;;;;24.20;100.00;98568.13;15301197;19;20027;-76
2022/08/02 10:28:55;;;;;;;2.55;0.90;;;;;;;24.34;100.00;98557.66;15303180;19;20031;-76
2022/08/02 10:34:08;;;;;;;3.20;0.82;;;;;;;24.40;100.00;98553.06;15295106;19;21384;-76
2022/08/02 10:39:13;;;;;;;1.48;0.80;;;;;;;24.62;100.00;98542.97;15300901;19;20628;-77
2022/08/02 10:44:23;;;;;;;3.35;0.90;;;;;;;24.73;100.00;98538.47;15305545;19;20018;-76
2022/08/02 10:49:31;;;;;;;2.37;0.80;;;;;;;24.74;95.66;98531.06;15309561;19;20023;-76
2022/08/02 10:54:49;;;;;;;1.05;0.65;;;;;;;24.89;98.52;98525.78;15368839;19;20018;-76
2022/08/02 11:00:04;;;;;;;1.23;0.60;;;;;;;25.03;94.80;98512.50;15308906;19;20094;-76
2022/08/02 11:05:29;;;;;;;1.90;0.68;;;;;;;25.05;88.77;98512.22;15292674;19;20034;-77
2022/08/02 11:10:47;;;;;;;2.22;0.93;;;;;;;25.09;86.65;98502.38;15287768;19;20002;-77
2022/08/02 11:16:00;;;;;;;4.85;0.63;;;;;;;25.24;84.24;98510.81;15301558;19;20223;-78
2022/08/02 11:21:27;;;;;;;1.33;0.65;;;;;;;25.48;81.63;98509.78;15299261;19;20010;-78
2022/08/02 11:26:46;;;;;;;1.40;0.60;;;;;;;25.74;76.86;98499.88;15310566;19;20026;-77
2022/08/02 11:31:52;;;;;;;2.70;0.70;;;;;;;25.99;80.31;98487.44;15304525;19;20007;-79
2022/08/02 11:37:02;;;;;;;1.35;0.70;;;;;;;26.06;74.38;98501.84;15295641;19;20070;-78
2022/08/02 11:42:07;;;;;;;2.30;0.70;;;;;;;26.30;79.71;98501.53;15293113;19;20447;-77
2022/08/02 11:47:12;;;;;;;1.35;0.60;;;;;;;26.60;81.58;98494.63;15298697;19;20014;-77
2022/08/02 11:52:20;;;;;;;2.60;0.50;;;;;;;26.90;72.47;98490.41;15289267;19;20031;-77
2022/08/02 11:57:25;;;;;;;0.82;0.47;;;;;;;27.01;66.67;98486.63;15304162;19;20010;-78
2022/08/02 12:02:34;;;;;;;1.83;0.70;;;;;;;27.25;68.35;98471.53;15299778;19;20402;-78
2022/08/02 12:07:42;;;;;;;2.03;0.55;;;;;;;27.29;66.16;98484.56;15314874;19;20011;-79
2022/08/02 12:12:51;;;;;;;1.35;0.52;;;;;;;27.29;65.18;98476.25;15304708;19;20018;-80
2022/08/02 12:23:18;;;;;;;1.40;0.70;;;;;;;27.68;66.38;98478.66;15298624;19;20013;-78
2022/08/02 12:28:26;;;;;;;2.17;0.50;;;;;;;27.95;60.97;98473.97;15305033;19;20014;-78
2022/08/02 12:33:48;;;;;;;1.60;0.60;;;;;;;28.26;62.31;98472.09;15307430;19;20018;-78
2022/08/02 12:38:57;;;;;;;1.42;0.63;;;;;;;28.40;61.09;98466.84;15300496;19;20003;-80
2022/08/02 12:44:03;;;;;;;1.48;0.43;;;;;;;28.62;60.12;98462.13;15293904;19;20007;-83
2022/08/02 12:49:17;;;;;;;2.92;0.50;;;;;;;28.75;56.59;98456.03;15295834;19;20498;-80
2022/08/02 12:54:29;;;;;;;2.25;0.38;;;;;;;28.64;55.05;98454.31;15298258;19;20035;-79
2022/08/02 12:59:37;;;;;;;1.88;0.45;;;;;;;28.65;57.41;98450.44;15291393;19;20021;-79
2022/08/02 13:04:44;;;;;;;1.52;0.57;;;;;;;28.38;55.71;98452.44;15297798;19;20058;-79
2022/08/02 13:09:57;;;;;;;1.45;0.60;;;;;;;28.77;56.96;98439.91;15292261;19;20025;-79
2022/08/02 13:15:08;;;;;;;1.92;0.50;;;;;;;28.96;54.91;98444.88;15286590;19;20042;-79
2022/08/02 13:20:36;;;;;;;0.85;0.43;;;;;;;29.05;55.66;98441.22;15301288;19;20421;-80
2022/08/02 13:25:53;;;;;;;2.20;0.70;;;;;;;29.19;55.74;98443.41;15313919;19;20030;-78
2022/08/02 13:30:58;;;;;;;2.28;0.60;;;;;;;29.15;52.26;98443.13;15306461;19;20042;-78
2022/08/02 13:36:24;;;;;;;2.97;0.80;;;;;;;29.21;54.30;98430.06;15311379;19;20014;-80
2022/08/02 13:41:33;;;;;;;4.30;0.50;;;;;;;29.27;51.16;98423.41;15305735;19;20013;-79
2022/08/02 13:46:38;;;;;;;4.72;0.60;;;;;;;29.52;52.30;98428.00;15304595;19;20014;-78
2022/08/02 13:51:50;;;;;;;4.18;0.60;;;;;;;30.06;51.65;98421.84;15298710;19;20019;-79
2022/08/02 13:56:58;;;;;;;2.83;0.50;;;;;;;30.39;48.45;98420.19;15306864;19;20018;-79
2022/08/02 14:02:05;;;;;;;2.03;0.52;;;;;;;30.73;49.11;98405.41;15304773;19;20011;-79
2022/08/02 14:07:10;;;;;;;3.38;0.50;;;;;;;30.62;48.30;98401.09;15299485;19;20023;-78
2022/08/02 14:12:18;;;;;;;1.90;0.60;;;;;;;30.26;47.66;98412.53;15304602;19;20010;-77
2022/08/02 14:17:23;;;;;;;0.65;0.47;;;;;;;30.26;48.84;98402.22;15306050;19;20352;-78
2022/08/02 14:22:29;;;;;;;3.65;0.40;;;;;;;30.40;47.32;98407.91;15292518;19;20027;-78
2022/08/02 14:27:37;;;;;;;0.82;0.35;;;;;;;30.00;46.76;98412.72;15304397;19;20356;-79
2022/08/02 14:32:44;;;;;;;6.60;0.50;;;;;;;30.30;47.08;98405.22;15307488;19;20026;-79
2022/08/02 14:37:49;;;;;;;1.58;0.50;;;;;;;30.47;47.56;98402.00;15309153;19;20019;-78
2022/08/02 14:43:03;;;;;;;3.90;0.40;;;;;;;30.86;44.77;98397.47;15305603;19;20007;-78
2022/08/02 14:48:08;;;;;;;2.20;0.50;;;;;;;30.80;45.23;98396.72;15310639;19;20015;-79
2022/08/02 14:53:13;;;;;;;4.03;0.57;;;;;;;30.65;44.62;98394.91;15301549;19;20471;-80
2022/08/02 14:58:21;;;;;;;0.63;0.28;;;;;;;30.83;44.71;98389.72;15306993;19;20022;-79
2022/08/02 15:03:27;;;;;;;2.95;0.43;;;;;;;30.62;43.47;98384.41;15306617;19;20015;-79
2022/08/02 15:14:19;;;;;;;1.50;0.43;;;;;;;31.26;42.14;98384.19;15371291;19;19991;-80
2022/08/02 15:19:33;;;;;;;2.55;0.50;;;;;;;31.47;41.91;98381.13;15312025;19;20027;-80
2022/08/02 15:25:01;;;;;;;1.85;0.40;;;;;;;31.94;41.70;98365.38;15301905;19;20074;-80
2022/08/02 15:30:09;;;;;;;2.28;0.30;;;;;;;32.57;42.38;98368.75;15342687;19;20018;-79
2022/08/02 15:35:15;;;;;;;1.02;0.50;;;;;;;33.18;39.77;98360.28;15350894;19;20073;-78
2022/08/02 15:40:20;;;;;;;0.73;0.30;;;;;;;32.63;40.34;98354.72;15306882;19;20010;-80
2022/08/02 15:45:30;;;;;;;1.13;0.30;;;;;;;33.29;41.03;98351.69;15307227;19;20507;-82
2022/08/02 15:50:35;;;;;;;0.95;0.40;;;;;;;32.99;39.79;98356.78;15306075;19;20014;-80
2022/08/02 15:55:40;;;;;;;0.65;0.32;;;;;;;32.02;40.44;98360.25;15309201;19;20014;-81
2022/08/02 16:01:09;;;;;;;3.15;0.30;;;;;;;32.13;40.95;98351.41;15299819;19;20010;-81
2022/08/02 16:06:14;;;;;;;3.83;0.43;;;;;;;31.68;39.97;98351.00;15311109;19;20047;-81
2022/08/02 16:11:20;;;;;;;4.22;0.40;;;;;;;31.21;39.79;98364.81;15303116;19;20010;-79
2022/08/02 16:16:29;;;;;;;3.45;0.50;;;;;;;30.71;40.60;98353.97;15305139;19;20011;-81
2022/08/02 16:21:34;;;;;;;3.35;0.30;;;;;;;30.84;41.16;98363.56;15300351;19;20006;-79
2022/08/02 16:26:40;;;;;;;3.55;0.32;;;;;;;30.50;42.00;98359.75;15302057;19;20037;-79
2022/08/02 16:31:48;;;;;;;3.42;0.40;;;;;;;30.24;42.05;98356.41;15291039;19;20010;-81
2022/08/02 16:36:53;;;;;;;2.83;0.30;;;;;;;30.31;41.67;98362.44;15298135;19;20014;-80
2022/08/02 16:41:58;;;;;;;2.97;0.40;;;;;;;30.39;41.62;98359.03;15297765;19;20021;-80
2022/08/02 16:47:08;;;;;;;0.90;0.30;;;;;;;30.12;42.12;98345.66;15300050;19;20019;-80
2022/08/02 16:52:14;;;;;;;2.60;0.20;;;;;;;29.41;42.68;98351.47;15297474;19;20086;-80
2022/08/02 16:57:19;;;;;;;1.27;0.38;;;;;;;29.24;42.38;98348.22;15315286;19;19995;-79
2022/08/02 17:02:27;;;;;;;5.40;0.50;;;;;;;29.21;42.77;98346.84;15300023;19;20035;-78
2022/08/02 17:07:32;;;;;;;2.03;0.30;;;;;;;29.02;43.26;98347.50;15313722;19;20058;-78
2022/08/02 17:12:58;;;;;;;2.78;0.20;;;;;;;29.20;42.25;98357.13;15312160;19;20584;-80
2022/08/02 17:18:18;;;;;;;1.23;0.30;;;;;;;28.87;41.98;98353.94;15312719;19;20997;-81
2022/08/02 17:23:30;;;;;;;2.70;0.30;;;;;;;29.32;42.82;98358.72;15308150;19;20022;-81
2022/08/02 17:28:55;;;;;;;4.28;0.50;;;;;;;29.68;42.91;98356.56;15310492;19;20006;-78
2022/08/02 17:34:23;;;;;;;1.30;0.40;;;;;;;29.88;41.12;98362.25;15299282;19;20014;-80
2022/08/02 17:39:30;;;;;;;0.75;0.40;;;;;;;29.66;40.68;98367.13;15305395;19;20388;-79
2022/08/02 17:44:38;;;;;;;0.30;0.30;;;;;;;29.46;42.15;98367.25;15307957;19;20404;-81
2022/08/02 17:49:45;;;;;;;0.80;0.30;;;;;;;29.12;41.06;98370.75;15305053;19;20014;-77
2022/08/02 17:54:52;;;;;;;2.67;0.20;;;;;;;28.94;42.05;98369.44;15306427;19;20124;-78
2022/08/02 17:59:59;;;;;;;2.95;0.30;;;;;;;28.90;42.20;98381.09;15301236;19;20003;-79
2022/08/02 18:05:13;;;;;;;2.25;0.40;;;;;;;28.89;42.25;98373.91;15301719;19;20013;-78
2022/08/02 18:10:18;;;;;;;5.03;0.40;;;;;;;28.63;42.12;98372.31;15306970;19;20025;-78
2022/08/02 18:15:24;;;;;;;5.07;0.50;;;;;;;28.37;42.54;98378.72;15308555;19;20018;-79
2022/08/02 18:20:32;;;;;;;1.13;0.50;;;;;;;28.16;42.34;98377.94;15304437;19;20014;-78
2022/08/02 18:25:37;;;;;;;4.22;0.40;;;;;;;27.94;42.88;98387.31;15306229;19;20094;-80
2022/08/02 18:31:02;;;;;;;2.53;0.30;;;;;;;27.76;42.40;98391.44;15302101;19;20026;-79
2022/08/02 18:36:14;;;;;;;1.48;0.40;;;;;;;27.61;42.43;98383.97;15300712;19;20031;-78
2022/08/02 18:41:28;;;;;;;2.80;0.40;;;;;;;27.25;42.95;98394.91;15292546;19;20011;-77
2022/08/02 18:46:38;;;;;;;0.73;0.30;;;;;;;27.06;42.38;98395.41;15298272;19;20150;-76
2022/08/02 18:51:50;;;;;;;0.40;0.20;;;;;;;26.73;42.37;98397.44;15297625;19;20011;-77
2022/08/02 18:56:55;;;;;;;3.40;0.50;;;;;;;26.53;42.90;98406.44;15292272;19;20381;-75
2022/08/02 19:02:01;;;;;;;1.90;0.50;;;;;;;26.35;42.54;98404.94;15290517;19;20018;-75
2022/08/02 19:07:08;;;;;;;1.85;0.30;;;;;;;26.15;42.57;98417.50;15291420;19;20523;-75
2022/08/02 19:12:15;;;;;;;2.67;0.40;;;;;;;25.95;42.33;98420.03;15282025;19;20010;-75
2022/08/02 19:17:32;;;;;;;1.98;0.40;;;;;;;25.78;42.87;98425.69;15290840;19;20078;-75
2022/08/02 19:23:04;;;;;;;1.65;0.40;;;;;;;25.61;42.75;98420.25;15292597;19;20475;-74
2022/08/02 19:28:13;;;;;;;0.75;0.38;;;;;;;25.42;42.99;98417.88;15308199;19;20037;-76
2022/08/02 19:33:18;;;;;;;0.50;0.35;;;;;;;25.32;43.33;98426.81;15364148;19;20035;-74
2022/08/02 19:38:47;;;;;;;2.30;0.38;;;;;;;25.24;42.86;98427.28;15307845;19;20035;-75
2022/08/02 19:44:01;;;;;;;1.63;0.30;;;;;;;25.17;43.53;98430.25;15351416;19;20037;-62
2022/08/02 19:49:26;;;;;;;0.43;0.30;;;;;;;25.08;42.97;98423.50;15364317;19;20014;-63
2022/08/02 19:54:46;;;;;;;2.35;0.32;;;;;;;24.96;42.74;98425.56;15365293;19;20006;-63
2022/08/02 20:00:14;;;;;;;0.88;0.35;;;;;;;24.92;41.29;98434.34;15367063;19;20006;-62
2022/08/02 20:05:25;;;;;;;1.70;0.32;;;;;;;24.84;42.52;98434.78;15366390;19;20010;-61
2022/08/02 20:10:32;;;;;;;1.40;0.38;;;;;;;24.80;45.06;98443.81;15359508;19;20016;-63
2022/08/02 20:15:40;;;;;;;2.30;0.50;;;;;;;24.59;47.60;98443.47;15349393;19;20486;-63
2022/08/02 20:21:00;;;;;;;6.13;0.65;;;;;;;24.36;48.08;98439.81;15357001;19;20010;-63
2022/08/02 20:26:06;;;;;;;3.92;0.40;;;;;;;24.14;49.00;98437.00;15358997;19;20024;-63
2022/08/02 20:31:15;;;;;;;2.53;0.52;;;;;;;23.95;49.52;98434.47;15357978;19;20093;-63
2022/08/02 20:36:22;;;;;;;1.05;0.40;;;;;;;23.78;49.87;98439.09;15356494;19;20379;-62
2022/08/02 20:41:27;;;;;;;4.65;0.43;;;;;;;23.57;50.00;98438.72;15355689;19;20041;-64
2022/08/02 20:46:52;;;;;;;2.15;0.50;;;;;;;23.37;50.38;98428.16;15347404;19;20018;-63
2022/08/02 20:51:57;;;;;;;3.70;0.60;;;;;;;23.20;50.55;98436.34;15333870;19;20031;-63
2022/08/02 20:57:02;;;;;;;4.03;0.50;;;;;;;23.07;51.72;98443.75;15296212;19;20672;-63
2022/08/02 21:02:10;;;;;;;2.55;0.43;;;;;;;22.94;52.73;98442.09;15296047;19;20015;-62
2022/08/02 21:07:20;;;;;;;2.50;0.40;;;;;;;22.82;53.07;98437.72;15297437;19;20021;-62
2022/08/02 21:12:26;;;;;;;1.70;0.55;;;;;;;22.71;52.97;98436.63;15294201;19;20014;-61
2022/08/02 21:17:41;;;;;;;3.33;0.43;;;;;;;22.62;53.02;98444.41;15295814;19;20655;-62
2022/08/02 21:23:08;;;;;;;2.67;0.43;;;;;;;22.53;53.83;98443.09;15296831;19;20022;-62
2022/08/02 21:28:23;;;;;;;1.42;0.40;;;;;;;22.41;54.05;98443.09;15296722;19;20002;-62
2022/08/02 21:33:50;;;;;;;1.17;0.30;;;;;;;22.31;54.70;98429.94;15292678;19;20475;-62
2022/08/02 21:39:02;;;;;;;1.08;0.30;;;;;;;22.21;54.66;98429.69;15296899;19;20692;-63
2022/08/02 21:44:13;;;;;;;0.57;0.40;;;;;;;22.11;54.65;98422.06;15269919;19;20502;-62
2022/08/02 21:49:24;;;;;;;2.08;0.50;;;;;;;21.97;55.86;98426.91;15295718;19;20006;-63
2022/08/02 21:54:44;;;;;;;2.38;0.43;;;;;;;21.76;56.25;98431.88;15284092;19;20010;-63
2022/08/02 21:59:51;;;;;;;2.25;0.43;;;;;;;21.64;56.40;98431.00;15293589;19;20391;-63
2022/08/02 22:05:01;;;;;;;2.15;0.50;;;;;;;21.49;58.43;98437.69;15291686;19;20014;-62
2022/08/02 22:10:08;;;;;;;2.65;0.40;;;;;;;21.33;60.54;98438.34;15288882;19;20022;-62
2022/08/02 22:15:13;;;;;;;2.75;0.50;;;;;;;21.17;61.22;98432.44;15286169;19;20006;-62
2022/08/02 22:20:21;;;;;;;1.10;0.35;;;;;;;21.05;61.11;98439.75;15291351;19;20022;-62
2022/08/02 22:25:27;;;;;;;1.15;0.40;;;;;;;20.96;60.54;98443.88;15284838;19;20021;-61
2022/08/02 22:30:41;;;;;;;0.30;0.30;;;;;;;20.86;60.27;98442.50;15291703;19;20427;-60
2022/08/02 22:35:50;;;;;;;0.52;0.30;;;;;;;20.77;61.92;98450.19;15293502;19;20014;-62
2022/08/02 22:40:55;;;;;;;1.00;0.30;;;;;;;20.62;64.54;98445.03;15290814;19;20018;-61
2022/08/02 22:46:00;;;;;;;2.53;0.38;;;;;;;20.52;64.67;98452.09;15290835;19;20011;-62
2022/08/02 22:51:08;;;;;;;1.73;0.40;;;;;;;20.40;65.24;98454.72;15289514;19;20373;-62
2022/08/02 22:56:16;;;;;;;0.73;0.30;;;;;;;20.32;64.68;98450.38;15281388;19;20016;-62
2022/08/02 23:01:21;;;;;;;0.30;0.30;;;;;;;20.24;64.73;98456.09;15290346;19;20478;-61
2022/08/02 23:06:28;;;;;;;0.55;0.30;;;;;;;20.18;66.17;98444.16;15290791;19;20014;-64
2022/08/02 23:11:33;;;;;;;1.77;0.40;;;;;;;20.06;67.62;98444.06;15288998;19;20026;-61
2022/08/02 23:21:58;;;;;;;0.93;0.30;;;;;;;20.01;68.30;98443.88;15285801;19;20746;-61
2022/08/02 23:27:06;;;;;;;0.90;0.37;;;;;;;19.99;69.74;98438.66;15282762;19;20018;-61
2022/08/02 23:32:11;;;;;;;1.67;0.40;;;;;;;19.96;71.56;98444.56;15281631;19;20010;-62
2022/08/02 23:37:19;;;;;;;1.08;0.50;;;;;;;19.89;75.11;98446.50;15289436;19;20011;-62
2022/08/02 23:42:25;;;;;;;2.25;0.50;;;;;;;19.70;80.04;98449.09;15286300;19;20018;-62
2022/08/02 23:47:30;;;;;;;1.10;0.45;;;;;;;19.54;85.63;98445.00;15288309;19;20010;-62
2022/08/02 23:52:37;;;;;;;1.08;0.52;;;;;;;19.43;89.06;98444.88;15285799;19;20427;-62
2022/08/02 23:57:42;;;;;;;2.50;0.60;;;;;;;19.32;91.17;98441.78;15288434;19;20081;-62
